Fort St. James, British Columbia

Past 24 Hour Conditions

This table is a summary of hourly weather conditions for the past 24 hours. This summary includes the following parameters: temperature, humidity, dew point, wind speed and direction, air pressure, visibility and/or wind chill and humidex.
Date / Time
(MST)
Conditions Temp (°F) Humidity (%) Dew Point (°F) Wind (mph) Pressure (inches) Visibility (miles)
16 April 2014
18:00 N/A 45 46 25 SE 5 29.9 N/A
17:00 N/A 48 35 22 ESE 2 29.9 N/A
16:00 N/A 49 30 19 E 3 29.9 N/A
15:00 N/A 51   28 19 E 2 29.9 N/A
14:00 N/A 49 32 21 NE 3 29.9 N/A
13:00 N/A 48 35 22 calm 30.0 N/A
12:00 N/A 46 36 21 E 2 30.0 N/A
11:00 N/A 41 44 21 NE 3 30.0 N/A
10:00 N/A 39 49 22 NE 4 30.0 N/A
9:00 N/A 38 53 22 E 4 30.0 N/A
8:00 N/A 35   62 23 NE 4 30.0 N/A
7:00 N/A 35   65 24 NE 5 30.0 N/A
6:00 N/A 35   67 25 NE 3 30.0 N/A
5:00 N/A 35   68 26 ENE 4 30.0 N/A
4:00 N/A 35   69 26 ENE 3 30.0 N/A
3:00 N/A 36 71 27 ENE 4 30.0 N/A
2:00 N/A 36 74 28 ENE 2 30.0 N/A
1:00 N/A 36 84 32 SE 3 30.0 N/A
00:00 N/A 37 86 33 E 2 30.0 N/A
15 April 2014
23:00 N/A 37 86 33 calm 30.0 N/A
22:00 N/A 37 84 33 E 2 30.0 N/A
21:00 N/A 39 83 34 NE 4 30.0 N/A
20:00 N/A 40 82 35 NE 3 30.0 N/A
19:00 N/A 43 65 33 NE 4 29.9 N/A
18:00 N/A 47 45 27 NW 3 29.9 N/A
N/A
Not available
 ↑ 
Highest temperature
 ↓ 
Lowest temperature

If you require additional historical weather information, please visit Climate Data Online.